createdAt,value
2018-07-07T00:01:05.836Z,17.30
2018-07-07T00:06:00.313Z,17.30
2018-07-07T00:10:58.948Z,17.30
2018-07-07T00:15:53.481Z,17.40
2018-07-07T00:20:47.957Z,17.40
2018-07-07T00:25:42.425Z,17.40
2018-07-07T00:30:36.983Z,17.50
2018-07-07T00:35:31.495Z,17.40
2018-07-07T00:40:25.988Z,17.40
2018-07-07T00:45:20.498Z,17.40
2018-07-07T00:50:15.028Z,17.40
2018-07-07T00:55:09.581Z,17.40
2018-07-07T01:00:04.165Z,17.40
2018-07-07T01:04:58.719Z,17.30
2018-07-07T01:09:53.313Z,17.30
2018-07-07T01:14:48.189Z,17.30
2018-07-07T01:19:42.688Z,17.10
2018-07-07T01:24:37.241Z,17.20
2018-07-07T01:29:31.753Z,17.10
2018-07-07T01:34:26.248Z,17.20
2018-07-07T01:39:20.849Z,17.10
2018-07-07T01:44:15.320Z,17.00
2018-07-07T01:49:09.804Z,16.90
2018-07-07T01:54:04.380Z,16.80
2018-07-07T01:58:58.961Z,16.90
2018-07-07T02:03:53.553Z,17.00
2018-07-07T02:08:48.041Z,17.10
2018-07-07T02:13:42.609Z,17.10
2018-07-07T02:18:37.125Z,17.00
2018-07-07T02:23:31.636Z,17.00
2018-07-07T02:28:26.128Z,17.20
2018-07-07T02:33:20.593Z,17.10
2018-07-07T02:38:15.086Z,17.10
2018-07-07T02:43:09.631Z,17.10
2018-07-07T02:48:04.111Z,17.20
2018-07-07T02:52:58.561Z,17.20
2018-07-07T02:57:53.029Z,17.30
2018-07-07T03:02:47.457Z,17.30
2018-07-07T03:07:41.943Z,17.30
2018-07-07T03:12:36.413Z,17.40
2018-07-07T03:17:31.196Z,17.40
2018-07-07T03:22:25.684Z,17.50
2018-07-07T03:27:20.162Z,17.60
2018-07-07T03:32:14.650Z,17.40
2018-07-07T03:37:09.170Z,17.40
2018-07-07T03:42:03.710Z,17.30
2018-07-07T03:46:58.200Z,17.30
2018-07-07T03:51:52.701Z,17.20
2018-07-07T03:56:47.212Z,17.30
2018-07-07T04:01:41.696Z,17.30
2018-07-07T04:06:36.193Z,17.30
2018-07-07T04:11:30.757Z,17.40
2018-07-07T04:16:25.252Z,17.40
2018-07-07T04:21:19.798Z,17.40
2018-07-07T04:31:08.521Z,17.50
2018-07-07T04:36:03.031Z,17.40
2018-07-07T04:40:57.564Z,17.40
2018-07-07T04:45:52.095Z,17.50
2018-07-07T04:55:40.788Z,17.70
2018-07-07T05:00:35.358Z,17.80
2018-07-07T05:05:29.917Z,17.70
2018-07-07T05:10:24.474Z,17.60
2018-07-07T05:15:19.040Z,17.70
2018-07-07T05:20:13.685Z,17.80
2018-07-07T05:25:08.382Z,18.00
2018-07-07T05:30:02.961Z,18.10
2018-07-07T05:34:57.459Z,18.30
2018-07-07T05:39:52.039Z,18.50
2018-07-07T05:49:40.857Z,19.40
2018-07-07T05:54:35.477Z,20.20
2018-07-07T05:59:30.248Z,20.90
2018-07-07T06:04:24.842Z,21.60
2018-07-07T06:09:19.383Z,21.70
2018-07-07T06:14:14.011Z,22.20
2018-07-07T06:19:08.951Z,22.10
2018-07-07T06:24:03.664Z,22.20
2018-07-07T06:28:58.343Z,21.80
2018-07-07T06:33:53.033Z,21.90
2018-07-07T06:38:47.641Z,21.80
2018-07-07T06:43:42.290Z,22.00
2018-07-07T06:58:25.786Z,22.30
2018-07-07T07:03:20.411Z,22.60
2018-07-07T07:08:15.015Z,22.50
2018-07-07T07:13:09.609Z,22.80
2018-07-07T07:18:04.413Z,23.00
2018-07-07T07:22:58.965Z,23.10
2018-07-07T07:27:53.809Z,23.50
2018-07-07T07:32:48.606Z,23.30
2018-07-07T07:37:43.453Z,22.50
2018-07-07T07:42:38.462Z,23.20
2018-07-07T07:47:33.093Z,23.60
2018-07-07T07:52:27.768Z,23.40
2018-07-07T07:57:22.441Z,23.30
2018-07-07T08:02:17.258Z,22.80
2018-07-07T08:07:11.965Z,22.40
2018-07-07T08:12:06.869Z,22.80
2018-07-07T08:17:01.485Z,22.40
2018-07-07T08:21:56.190Z,22.80
2018-07-07T08:26:50.709Z,23.30
2018-07-07T08:31:45.260Z,23.70
2018-07-07T08:36:39.821Z,23.40
2018-07-07T08:41:34.605Z,23.00
2018-07-07T08:51:24.270Z,23.10
2018-07-07T08:56:18.865Z,22.80
2018-07-07T09:01:13.606Z,23.10
2018-07-07T09:06:08.471Z,23.30
2018-07-07T09:11:03.193Z,23.50
2018-07-07T09:15:58.345Z,23.70
2018-07-07T09:20:52.932Z,24.20
2018-07-07T09:25:47.536Z,24.10
2018-07-07T09:30:42.098Z,24.70
2018-07-07T09:35:37.048Z,25.00
2018-07-07T09:40:31.594Z,24.80
2018-07-07T09:45:26.392Z,25.20
2018-07-07T09:50:20.956Z,25.40
2018-07-07T10:00:14.742Z,25.70
2018-07-07T10:05:09.504Z,25.50
2018-07-07T10:10:04.134Z,25.70
2018-07-07T10:14:59.561Z,26.00
2018-07-07T10:19:54.136Z,25.60
2018-07-07T10:24:49.649Z,25.60
2018-07-07T10:34:38.509Z,26.20
2018-07-07T10:39:33.033Z,26.70
2018-07-07T10:44:27.577Z,26.80
2018-07-07T10:49:22.262Z,27.00
2018-07-07T10:54:16.945Z,26.60
2018-07-07T10:59:11.544Z,26.20
2018-07-07T11:04:06.125Z,26.10
2018-07-07T11:09:00.774Z,26.70
2018-07-07T11:13:55.352Z,26.40
2018-07-07T11:18:50.053Z,26.80
2018-07-07T11:23:45.268Z,27.30
2018-07-07T11:28:40.837Z,26.90
2018-07-07T11:33:35.414Z,27.40
2018-07-07T11:38:30.029Z,27.80
2018-07-07T11:43:24.662Z,28.10
2018-07-07T11:48:19.688Z,28.00
2018-07-07T11:53:14.340Z,27.50
2018-07-07T11:58:09.036Z,27.60
2018-07-07T12:03:03.657Z,27.90
2018-07-07T12:08:13.315Z,27.20
2018-07-07T12:12:53.845Z,26.80
2018-07-07T12:17:48.585Z,27.10
2018-07-07T12:27:37.799Z,28.10
2018-07-07T12:32:32.409Z,27.40
2018-07-07T12:37:27.031Z,27.90
2018-07-07T12:42:21.805Z,28.20
2018-07-07T12:47:16.443Z,28.80
2018-07-07T12:52:11.167Z,28.80
2018-07-07T12:57:06.038Z,29.10
2018-07-07T13:06:55.256Z,29.30
2018-07-07T13:11:51.119Z,29.20
2018-07-07T13:16:45.897Z,29.60
2018-07-07T13:21:41.467Z,29.40
2018-07-07T13:26:36.450Z,29.40
2018-07-07T13:31:31.873Z,28.60
2018-07-07T13:41:21.107Z,28.40
2018-07-07T13:46:15.849Z,28.10
2018-07-07T13:51:11.266Z,28.20
2018-07-07T13:56:06.152Z,28.70
2018-07-07T14:01:00.941Z,28.20
2018-07-07T14:10:50.013Z,28.00
2018-07-07T14:15:46.218Z,28.00
2018-07-07T14:20:40.873Z,27.70
2018-07-07T14:25:35.669Z,27.50
2018-07-07T14:30:30.507Z,26.50
2018-07-07T14:35:25.398Z,26.70
2018-07-07T14:40:21.098Z,27.20
2018-07-07T14:45:18.529Z,27.30
2018-07-07T14:50:13.925Z,26.20
2018-07-07T14:55:09.420Z,26.00
2018-07-07T15:00:04.145Z,25.80
2018-07-07T15:04:58.892Z,25.50
2018-07-07T15:09:53.465Z,25.70
2018-07-07T15:14:48.137Z,25.50
2018-07-07T15:19:42.965Z,25.70
2018-07-07T15:24:37.574Z,25.60
2018-07-07T15:29:32.329Z,25.50
2018-07-07T15:34:27.553Z,25.40
2018-07-07T15:39:22.532Z,25.70
2018-07-07T15:44:17.660Z,26.00
2018-07-07T15:49:12.719Z,26.00
2018-07-07T15:59:01.613Z,26.30
2018-07-07T16:03:57.737Z,26.30
2018-07-07T16:08:52.465Z,26.60
2018-07-07T16:13:49.018Z,26.90
2018-07-07T16:18:44.056Z,27.30
2018-07-07T16:28:33.224Z,27.40
2018-07-07T16:33:28.025Z,27.50
2018-07-07T16:38:22.561Z,27.40
2018-07-07T16:43:17.406Z,27.50
2018-07-07T16:48:12.921Z,27.70
2018-07-07T16:53:07.575Z,27.60
2018-07-07T16:58:02.178Z,27.70
2018-07-07T17:02:56.726Z,27.70
2018-07-07T17:07:51.394Z,27.50
2018-07-07T17:12:45.949Z,27.40
2018-07-07T17:17:40.625Z,27.40
2018-07-07T17:22:35.813Z,27.10
2018-07-07T17:27:30.516Z,27.10
2018-07-07T17:32:25.342Z,27.30
2018-07-07T17:37:21.750Z,27.10
2018-07-07T17:42:16.652Z,26.90
2018-07-07T17:47:11.271Z,26.60
2018-07-07T17:57:00.839Z,26.60
2018-07-07T18:01:55.524Z,26.30
2018-07-07T18:06:51.273Z,26.10
2018-07-07T18:11:45.881Z,26.30
2018-07-07T18:21:35.305Z,26.20
2018-07-07T18:26:29.995Z,26.10
2018-07-07T18:31:24.872Z,26.10
2018-07-07T18:36:19.446Z,26.20
2018-07-07T18:41:14.113Z,26.30
2018-07-07T18:46:09.253Z,26.10
2018-07-07T18:55:59.689Z,26.00
2018-07-07T19:00:54.357Z,26.30
2018-07-07T19:10:43.203Z,25.80
2018-07-07T19:15:37.753Z,25.40
2018-07-07T19:20:37.569Z,24.90
2018-07-07T19:25:37.279Z,24.60
2018-07-07T19:40:26.006Z,23.90
2018-07-07T19:45:20.684Z,23.60
2018-07-07T19:50:15.343Z,23.40
2018-07-07T19:55:10.361Z,23.30
2018-07-07T20:00:05.186Z,23.10
2018-07-07T20:04:59.769Z,23.00
2018-07-07T20:09:54.640Z,22.90
2018-07-07T20:14:49.653Z,22.70
2018-07-07T20:21:04.241Z,22.30
2018-07-07T20:26:04.639Z,22.20
2018-07-07T20:30:59.656Z,22.00
2018-07-07T20:35:54.461Z,21.60
2018-07-07T20:40:49.116Z,21.70
2018-07-07T20:45:43.813Z,21.70
2018-07-07T20:50:38.614Z,21.60
2018-07-07T20:55:33.351Z,21.50
2018-07-07T21:00:28.060Z,21.40
2018-07-07T21:05:22.597Z,21.20
2018-07-07T21:10:17.174Z,21.10
2018-07-07T21:15:11.708Z,21.10
2018-07-07T21:20:06.799Z,21.00
2018-07-07T21:25:01.673Z,21.00
2018-07-07T21:29:56.333Z,20.90
2018-07-07T21:34:50.947Z,20.80
2018-07-07T21:39:45.543Z,20.80
2018-07-07T21:44:40.145Z,20.70
2018-07-07T21:49:34.811Z,20.60
2018-07-07T21:59:24.364Z,20.30
2018-07-07T22:04:24.261Z,20.10
2018-07-07T22:09:18.800Z,20.00
2018-07-07T22:14:13.365Z,19.90
2018-07-07T22:19:07.960Z,19.80
2018-07-07T22:24:02.940Z,19.70
2018-07-07T22:28:57.533Z,19.70
2018-07-07T22:33:52.144Z,19.70
2018-07-07T22:38:51.963Z,19.70
2018-07-07T22:43:47.598Z,19.60
2018-07-07T22:48:42.145Z,19.60
2018-07-07T22:53:36.778Z,19.60
2018-07-07T22:58:31.350Z,19.50
2018-07-07T23:03:25.925Z,19.50
2018-07-07T23:08:20.455Z,19.50
2018-07-07T23:13:15.017Z,19.40
2018-07-07T23:18:09.745Z,19.40
2018-07-07T23:23:04.345Z,19.20
2018-07-07T23:27:58.907Z,19.20
2018-07-07T23:32:53.540Z,19.20
2018-07-07T23:37:48.068Z,19.30
2018-07-07T23:42:42.674Z,19.30
2018-07-07T23:47:37.333Z,19.20
2018-07-07T23:52:31.935Z,19.10
2018-07-07T23:57:26.489Z,19.00
